sensor_id;sensor_type;location;lat;lon;timestamp;temperature;humidity
13796;SHT30;40911;51.552;9.874;2024-01-07T00:01:22;1.82;97.27
13796;SHT30;40911;51.552;9.874;2024-01-07T00:03:45;1.80;97.29
13796;SHT30;40911;51.552;9.874;2024-01-07T00:06:07;1.85;97.16
13796;SHT30;40911;51.552;9.874;2024-01-07T00:08:29;1.83;97.16
13796;SHT30;40911;51.552;9.874;2024-01-07T00:10:50;1.79;97.19
13796;SHT30;40911;51.552;9.874;2024-01-07T00:13:12;1.82;97.21
13796;SHT30;40911;51.552;9.874;2024-01-07T00:15:34;1.72;97.22
13796;SHT30;40911;51.552;9.874;2024-01-07T00:17:55;1.85;97.32
13796;SHT30;40911;51.552;9.874;2024-01-07T00:20:18;1.80;97.24
13796;SHT30;40911;51.552;9.874;2024-01-07T00:22:40;1.83;97.27
13796;SHT30;40911;51.552;9.874;2024-01-07T00:25:02;1.80;97.21
13796;SHT30;40911;51.552;9.874;2024-01-07T00:27:23;1.80;97.21
13796;SHT30;40911;51.552;9.874;2024-01-07T00:29:45;1.83;97.12
13796;SHT30;40911;51.552;9.874;2024-01-07T00:32:06;1.79;97.18
13796;SHT30;40911;51.552;9.874;2024-01-07T00:34:28;1.76;97.26
13796;SHT30;40911;51.552;9.874;2024-01-07T00:36:51;1.80;97.12
13796;SHT30;40911;51.552;9.874;2024-01-07T00:39:13;1.73;97.38
13796;SHT30;40911;51.552;9.874;2024-01-07T00:41:34;1.76;97.12
13796;SHT30;40911;51.552;9.874;2024-01-07T00:43:56;1.76;97.25
13796;SHT30;40911;51.552;9.874;2024-01-07T00:46:17;1.78;97.10
13796;SHT30;40911;51.552;9.874;2024-01-07T00:48:39;1.61;97.11
13796;SHT30;40911;51.552;9.874;2024-01-07T00:51:00;1.61;97.02
13796;SHT30;40911;51.552;9.874;2024-01-07T00:53:23;1.61;97.21
13796;SHT30;40911;51.552;9.874;2024-01-07T00:55:45;1.72;97.25
13796;SHT30;40911;51.552;9.874;2024-01-07T00:58:07;1.56;97.25
13796;SHT30;40911;51.552;9.874;2024-01-07T01:00:28;1.63;97.25
13796;SHT30;40911;51.552;9.874;2024-01-07T01:02:50;1.59;97.05
13796;SHT30;40911;51.552;9.874;2024-01-07T01:05:12;1.61;97.19
13796;SHT30;40911;51.552;9.874;2024-01-07T01:07:33;1.59;97.23
13796;SHT30;40911;51.552;9.874;2024-01-07T01:09:56;1.54;97.05
13796;SHT30;40911;51.552;9.874;2024-01-07T01:12:18;1.62;97.09
13796;SHT30;40911;51.552;9.874;2024-01-07T01:14:40;1.56;97.04
13796;SHT30;40911;51.552;9.874;2024-01-07T01:17:02;1.62;97.05
13796;SHT30;40911;51.552;9.874;2024-01-07T01:19:23;1.66;97.12
13796;SHT30;40911;51.552;9.874;2024-01-07T01:21:45;1.68;97.07
13796;SHT30;40911;51.552;9.874;2024-01-07T01:24:07;1.56;97.11
13796;SHT30;40911;51.552;9.874;2024-01-07T01:26:30;1.58;97.10
13796;SHT30;40911;51.552;9.874;2024-01-07T01:28:51;1.58;97.05
13796;SHT30;40911;51.552;9.874;2024-01-07T01:31:13;1.63;97.07
13796;SHT30;40911;51.552;9.874;2024-01-07T01:33:35;1.54;97.07
13796;SHT30;40911;51.552;9.874;2024-01-07T01:35:57;1.63;97.03
13796;SHT30;40911;51.552;9.874;2024-01-07T01:38:18;1.54;97.07
13796;SHT30;40911;51.552;9.874;2024-01-07T01:40:40;1.56;96.98
13796;SHT30;40911;51.552;9.874;2024-01-07T01:43:03;1.49;97.08
13796;SHT30;40911;51.552;9.874;2024-01-07T01:45:25;1.48;96.96
13796;SHT30;40911;51.552;9.874;2024-01-07T01:47:47;1.51;96.90
13796;SHT30;40911;51.552;9.874;2024-01-07T01:50:10;1.51;96.84
13796;SHT30;40911;51.552;9.874;2024-01-07T01:52:33;1.52;96.71
13796;SHT30;40911;51.552;9.874;2024-01-07T01:54:55;1.45;96.83
13796;SHT30;40911;51.552;9.874;2024-01-07T01:57:19;1.45;96.81
13796;SHT30;40911;51.552;9.874;2024-01-07T01:59:42;1.42;96.80
13796;SHT30;40911;51.552;9.874;2024-01-07T02:02:04;1.40;96.78
13796;SHT30;40911;51.552;9.874;2024-01-07T02:04:25;1.34;96.71
13796;SHT30;40911;51.552;9.874;2024-01-07T02:06:49;1.35;96.67
13796;SHT30;40911;51.552;9.874;2024-01-07T02:09:11;1.30;96.68
13796;SHT30;40911;51.552;9.874;2024-01-07T02:11:32;1.35;96.62
13796;SHT30;40911;51.552;9.874;2024-01-07T02:13:54;1.32;96.68
13796;SHT30;40911;51.552;9.874;2024-01-07T02:16:17;1.32;96.64
13796;SHT30;40911;51.552;9.874;2024-01-07T02:18:40;1.35;96.49
13796;SHT30;40911;51.552;9.874;2024-01-07T02:21:02;1.31;96.59
13796;SHT30;40911;51.552;9.874;2024-01-07T02:23:24;1.27;96.73
13796;SHT30;40911;51.552;9.874;2024-01-07T02:25:47;1.32;96.90
13796;SHT30;40911;51.552;9.874;2024-01-07T02:28:09;1.34;96.67
13796;SHT30;40911;51.552;9.874;2024-01-07T02:30:30;1.34;96.89
13796;SHT30;40911;51.552;9.874;2024-01-07T02:32:52;1.34;96.70
13796;SHT30;40911;51.552;9.874;2024-01-07T02:35:14;1.35;96.68
13796;SHT30;40911;51.552;9.874;2024-01-07T02:37:35;1.34;96.64
13796;SHT30;40911;51.552;9.874;2024-01-07T02:39:57;1.37;96.67
13796;SHT30;40911;51.552;9.874;2024-01-07T02:42:20;1.42;96.64
13796;SHT30;40911;51.552;9.874;2024-01-07T02:44:42;1.35;96.49
13796;SHT30;40911;51.552;9.874;2024-01-07T02:47:04;1.41;96.53
13796;SHT30;40911;51.552;9.874;2024-01-07T02:49:25;1.35;96.35
13796;SHT30;40911;51.552;9.874;2024-01-07T02:51:47;1.35;96.46
13796;SHT30;40911;51.552;9.874;2024-01-07T02:54:10;1.32;96.48
13796;SHT30;40911;51.552;9.874;2024-01-07T02:56:31;1.32;96.49
13796;SHT30;40911;51.552;9.874;2024-01-07T02:58:54;1.30;96.62
13796;SHT30;40911;51.552;9.874;2024-01-07T03:01:16;1.28;96.36
13796;SHT30;40911;51.552;9.874;2024-01-07T03:03:38;1.31;96.30
13796;SHT30;40911;51.552;9.874;2024-01-07T03:05:59;1.28;96.33
13796;SHT30;40911;51.552;9.874;2024-01-07T03:08:21;1.26;96.28
13796;SHT30;40911;51.552;9.874;2024-01-07T03:10:43;1.28;96.33
13796;SHT30;40911;51.552;9.874;2024-01-07T03:13:05;1.27;96.29
13796;SHT30;40911;51.552;9.874;2024-01-07T03:15:28;1.27;96.24
13796;SHT30;40911;51.552;9.874;2024-01-07T03:17:50;1.26;96.24
13796;SHT30;40911;51.552;9.874;2024-01-07T03:20:11;1.08;95.98
13796;SHT30;40911;51.552;9.874;2024-01-07T03:22:33;1.10;96.17
13796;SHT30;40911;51.552;9.874;2024-01-07T03:24:55;1.11;96.26
13796;SHT30;40911;51.552;9.874;2024-01-07T03:27:16;0.96;96.02
13796;SHT30;40911;51.552;9.874;2024-01-07T03:29:39;0.97;96.20
13796;SHT30;40911;51.552;9.874;2024-01-07T03:32:03;0.89;96.12
13796;SHT30;40911;51.552;9.874;2024-01-07T03:34:25;0.90;96.23
13796;SHT30;40911;51.552;9.874;2024-01-07T03:36:46;0.86;95.93
13796;SHT30;40911;51.552;9.874;2024-01-07T03:39:08;0.83;95.88
13796;SHT30;40911;51.552;9.874;2024-01-07T03:41:30;0.89;96.13
13796;SHT30;40911;51.552;9.874;2024-01-07T03:43:51;0.90;95.99
13796;SHT30;40911;51.552;9.874;2024-01-07T03:46:13;0.96;96.05
13796;SHT30;40911;51.552;9.874;2024-01-07T03:48:36;0.79;95.86
13796;SHT30;40911;51.552;9.874;2024-01-07T03:50:58;0.82;96.06
13796;SHT30;40911;51.552;9.874;2024-01-07T03:53:20;0.62;96.92
13796;SHT30;40911;51.552;9.874;2024-01-07T03:55:41;0.76;97.61
13796;SHT30;40911;51.552;9.874;2024-01-07T03:58:03;0.73;96.27
13796;SHT30;40911;51.552;9.874;2024-01-07T04:00:25;0.80;96.02
13796;SHT30;40911;51.552;9.874;2024-01-07T04:02:46;0.72;96.02
13796;SHT30;40911;51.552;9.874;2024-01-07T04:05:10;0.68;96.05
13796;SHT30;40911;51.552;9.874;2024-01-07T04:07:33;0.73;95.81
13796;SHT30;40911;51.552;9.874;2024-01-07T04:09:55;0.70;95.88
13796;SHT30;40911;51.552;9.874;2024-01-07T04:12:17;0.59;95.68
13796;SHT30;40911;51.552;9.874;2024-01-07T04:14:39;0.62;95.89
13796;SHT30;40911;51.552;9.874;2024-01-07T04:17:00;0.58;96.09
13796;SHT30;40911;51.552;9.874;2024-01-07T04:19:22;0.56;96.12
13796;SHT30;40911;51.552;9.874;2024-01-07T04:21:46;0.30;98.60
13796;SHT30;40911;51.552;9.874;2024-01-07T04:24:08;0.42;99.99
13796;SHT30;40911;51.552;9.874;2024-01-07T04:26:30;0.20;99.99
13796;SHT30;40911;51.552;9.874;2024-01-07T04:28:51;0.31;99.99
13796;SHT30;40911;51.552;9.874;2024-01-07T04:31:13;0.11;99.99
13796;SHT30;40911;51.552;9.874;2024-01-07T04:33:35;0.37;98.30
13796;SHT30;40911;51.552;9.874;2024-01-07T04:35:56;0.41;97.48
13796;SHT30;40911;51.552;9.874;2024-01-07T04:38:20;0.35;97.41
13796;SHT30;40911;51.552;9.874;2024-01-07T04:40:42;0.37;97.29
13796;SHT30;40911;51.552;9.874;2024-01-07T04:43:04;0.34;97.22
13796;SHT30;40911;51.552;9.874;2024-01-07T04:45:25;0.30;97.09
13796;SHT30;40911;51.552;9.874;2024-01-07T04:47:46;0.41;97.15
13796;SHT30;40911;51.552;9.874;2024-01-07T04:50:08;0.40;96.74
13796;SHT30;40911;51.552;9.874;2024-01-07T04:52:29;0.38;96.86
13796;SHT30;40911;51.552;9.874;2024-01-07T04:54:53;0.34;96.73
13796;SHT30;40911;51.552;9.874;2024-01-07T04:57:15;0.27;96.62
13796;SHT30;40911;51.552;9.874;2024-01-07T04:59:36;0.33;96.47
13796;SHT30;40911;51.552;9.874;2024-01-07T05:01:58;0.24;96.30
13796;SHT30;40911;51.552;9.874;2024-01-07T05:04:20;0.25;96.30
13796;SHT30;40911;51.552;9.874;2024-01-07T05:06:44;0.37;96.41
13796;SHT30;40911;51.552;9.874;2024-01-07T05:09:05;0.30;96.07
13796;SHT30;40911;51.552;9.874;2024-01-07T05:11:28;0.34;95.91
13796;SHT30;40911;51.552;9.874;2024-01-07T05:13:50;0.30;95.89
13796;SHT30;40911;51.552;9.874;2024-01-07T05:16:18;0.23;95.56
13796;SHT30;40911;51.552;9.874;2024-01-07T05:18:40;0.21;95.52
13796;SHT30;40911;51.552;9.874;2024-01-07T05:21:02;0.34;95.47
13796;SHT30;40911;51.552;9.874;2024-01-07T05:23:27;0.34;95.20
13796;SHT30;40911;51.552;9.874;2024-01-07T05:25:48;0.38;95.29
13796;SHT30;40911;51.552;9.874;2024-01-07T05:28:12;0.30;95.08
13796;SHT30;40911;51.552;9.874;2024-01-07T05:30:33;0.18;94.74
13796;SHT30;40911;51.552;9.874;2024-01-07T05:32:55;0.25;94.74
13796;SHT30;40911;51.552;9.874;2024-01-07T05:35:17;0.20;94.53
13796;SHT30;40911;51.552;9.874;2024-01-07T05:37:38;0.16;94.57
13796;SHT30;40911;51.552;9.874;2024-01-07T05:40:00;0.11;94.61
13796;SHT30;40911;51.552;9.874;2024-01-07T05:42:21;0.07;94.36
13796;SHT30;40911;51.552;9.874;2024-01-07T05:44:44;0.07;94.33
13796;SHT30;40911;51.552;9.874;2024-01-07T05:47:06;0.11;94.09
13796;SHT30;40911;51.552;9.874;2024-01-07T05:49:27;0.01;94.21
13796;SHT30;40911;51.552;9.874;2024-01-07T05:51:49;0.14;94.31
13796;SHT30;40911;51.552;9.874;2024-01-07T05:54:11;0.09;94.07
13796;SHT30;40911;51.552;9.874;2024-01-07T05:56:32;0.00;93.90
13796;SHT30;40911;51.552;9.874;2024-01-07T05:58:59;0.04;94.13
13796;SHT30;40911;51.552;9.874;2024-01-07T06:01:22;0.10;94.01
13796;SHT30;40911;51.552;9.874;2024-01-07T06:03:43;0.10;93.98
13796;SHT30;40911;51.552;9.874;2024-01-07T06:06:05;0.00;93.73
13796;SHT30;40911;51.552;9.874;2024-01-07T06:08:27;-0.03;93.64
13796;SHT30;40911;51.552;9.874;2024-01-07T06:10:49;-0.04;93.81
13796;SHT30;40911;51.552;9.874;2024-01-07T06:13:10;-0.10;93.67
13796;SHT30;40911;51.552;9.874;2024-01-07T06:15:32;-0.11;93.60
13796;SHT30;40911;51.552;9.874;2024-01-07T06:17:55;-0.18;93.47
13796;SHT30;40911;51.552;9.874;2024-01-07T06:20:16;-0.17;93.26
13796;SHT30;40911;51.552;9.874;2024-01-07T06:22:38;-0.31;92.88
13796;SHT30;40911;51.552;9.874;2024-01-07T06:25:00;-0.17;93.33
13796;SHT30;40911;51.552;9.874;2024-01-07T06:27:21;-0.13;93.57
13796;SHT30;40911;51.552;9.874;2024-01-07T06:29:43;-0.20;93.44
13796;SHT30;40911;51.552;9.874;2024-01-07T06:32:05;-0.25;93.46
13796;SHT30;40911;51.552;9.874;2024-01-07T06:34:28;-0.23;93.17
13796;SHT30;40911;51.552;9.874;2024-01-07T06:36:49;-0.25;93.39
13796;SHT30;40911;51.552;9.874;2024-01-07T06:39:11;-0.09;93.37
13796;SHT30;40911;51.552;9.874;2024-01-07T06:41:33;-0.11;93.30
13796;SHT30;40911;51.552;9.874;2024-01-07T06:43:54;-0.23;93.31
13796;SHT30;40911;51.552;9.874;2024-01-07T06:46:17;-0.24;93.11
13796;SHT30;40911;51.552;9.874;2024-01-07T06:48:38;-0.24;93.24
13796;SHT30;40911;51.552;9.874;2024-01-07T06:51:01;-0.20;93.28
13796;SHT30;40911;51.552;9.874;2024-01-07T06:53:24;-0.10;93.50
13796;SHT30;40911;51.552;9.874;2024-01-07T06:55:45;-0.27;93.07
13796;SHT30;40911;51.552;9.874;2024-01-07T06:58:07;-0.13;93.32
13796;SHT30;40911;51.552;9.874;2024-01-07T07:00:28;-0.30;93.19
13796;SHT30;40911;51.552;9.874;2024-01-07T07:02:50;-0.38;92.95
13796;SHT30;40911;51.552;9.874;2024-01-07T07:05:11;-0.37;92.95
13796;SHT30;40911;51.552;9.874;2024-01-07T07:07:34;-0.35;93.04
13796;SHT30;40911;51.552;9.874;2024-01-07T07:09:56;-0.31;93.18
13796;SHT30;40911;51.552;9.874;2024-01-07T07:12:17;-0.35;93.03
13796;SHT30;40911;51.552;9.874;2024-01-07T07:14:39;-0.28;93.04
13796;SHT30;40911;51.552;9.874;2024-01-07T07:17:01;-0.35;93.02
13796;SHT30;40911;51.552;9.874;2024-01-07T07:19:23;-0.32;93.13
13796;SHT30;40911;51.552;9.874;2024-01-07T07:21:45;-0.45;92.91
13796;SHT30;40911;51.552;9.874;2024-01-07T07:24:08;-0.27;93.31
13796;SHT30;40911;51.552;9.874;2024-01-07T07:26:30;-0.41;93.19
13796;SHT30;40911;51.552;9.874;2024-01-07T07:28:51;-0.44;93.06
13796;SHT30;40911;51.552;9.874;2024-01-07T07:31:14;-0.46;93.09
13796;SHT30;40911;51.552;9.874;2024-01-07T07:33:37;-0.38;93.31
13796;SHT30;40911;51.552;9.874;2024-01-07T07:35:59;-0.42;92.56
13796;SHT30;40911;51.552;9.874;2024-01-07T07:38:21;-0.45;92.27
13796;SHT30;40911;51.552;9.874;2024-01-07T07:40:44;-0.68;91.50
13796;SHT30;40911;51.552;9.874;2024-01-07T07:43:12;-0.65;91.38
13796;SHT30;40911;51.552;9.874;2024-01-07T07:45:34;-0.66;90.93
13796;SHT30;40911;51.552;9.874;2024-01-07T07:47:56;-0.72;90.39
13796;SHT30;40911;51.552;9.874;2024-01-07T07:50:17;-0.59;91.16
13796;SHT30;40911;51.552;9.874;2024-01-07T07:52:40;-0.58;91.08
13796;SHT30;40911;51.552;9.874;2024-01-07T07:55:04;-0.49;91.59
13796;SHT30;40911;51.552;9.874;2024-01-07T07:57:28;-0.49;92.19
13796;SHT30;40911;51.552;9.874;2024-01-07T07:59:50;-0.58;92.01
13796;SHT30;40911;51.552;9.874;2024-01-07T08:02:12;-0.59;92.08
13796;SHT30;40911;51.552;9.874;2024-01-07T08:04:33;-0.61;91.95
13796;SHT30;40911;51.552;9.874;2024-01-07T08:06:55;-0.80;90.98
13796;SHT30;40911;51.552;9.874;2024-01-07T08:09:17;-0.84;90.73
13796;SHT30;40911;51.552;9.874;2024-01-07T08:11:38;-0.68;91.05
13796;SHT30;40911;51.552;9.874;2024-01-07T08:14:01;-0.65;91.09
13796;SHT30;40911;51.552;9.874;2024-01-07T08:16:23;-0.62;91.01
13796;SHT30;40911;51.552;9.874;2024-01-07T08:18:44;-0.59;91.07
13796;SHT30;40911;51.552;9.874;2024-01-07T08:21:06;-0.86;89.90
13796;SHT30;40911;51.552;9.874;2024-01-07T08:23:28;-0.72;90.71
13796;SHT30;40911;51.552;9.874;2024-01-07T08:25:49;-0.79;90.13
13796;SHT30;40911;51.552;9.874;2024-01-07T08:28:11;-0.72;90.53
13796;SHT30;40911;51.552;9.874;2024-01-07T08:30:35;-0.66;90.69
13796;SHT30;40911;51.552;9.874;2024-01-07T08:32:56;-0.93;89.73
13796;SHT30;40911;51.552;9.874;2024-01-07T08:35:18;-0.77;90.32
13796;SHT30;40911;51.552;9.874;2024-01-07T08:37:39;-0.79;90.17
13796;SHT30;40911;51.552;9.874;2024-01-07T08:40:01;-0.74;90.50
13796;SHT30;40911;51.552;9.874;2024-01-07T08:42:23;-0.76;89.97
13796;SHT30;40911;51.552;9.874;2024-01-07T08:44:46;-0.77;89.77
13796;SHT30;40911;51.552;9.874;2024-01-07T08:47:09;-0.82;89.37
13796;SHT30;40911;51.552;9.874;2024-01-07T08:49:31;-1.00;88.09
13796;SHT30;40911;51.552;9.874;2024-01-07T08:51:54;-0.94;88.74
13796;SHT30;40911;51.552;9.874;2024-01-07T08:54:16;-1.07;87.73
13796;SHT30;40911;51.552;9.874;2024-01-07T08:56:38;-1.01;87.89
13796;SHT30;40911;51.552;9.874;2024-01-07T08:59:00;-1.10;87.50
13796;SHT30;40911;51.552;9.874;2024-01-07T09:01:24;-1.00;88.15
13796;SHT30;40911;51.552;9.874;2024-01-07T09:03:47;-1.03;88.13
13796;SHT30;40911;51.552;9.874;2024-01-07T09:06:09;-1.10;87.73
13796;SHT30;40911;51.552;9.874;2024-01-07T09:08:30;-1.01;88.14
13796;SHT30;40911;51.552;9.874;2024-01-07T09:10:52;-0.99;88.25
13796;SHT30;40911;51.552;9.874;2024-01-07T09:13:14;-1.04;87.94
13796;SHT30;40911;51.552;9.874;2024-01-07T09:15:36;-0.94;88.25
13796;SHT30;40911;51.552;9.874;2024-01-07T09:17:57;-1.00;87.75
13796;SHT30;40911;51.552;9.874;2024-01-07T09:20:20;-1.04;87.60
13796;SHT30;40911;51.552;9.874;2024-01-07T09:22:42;-0.94;88.31
13796;SHT30;40911;51.552;9.874;2024-01-07T09:25:05;-1.09;87.53
13796;SHT30;40911;51.552;9.874;2024-01-07T09:27:27;-1.11;87.57
13796;SHT30;40911;51.552;9.874;2024-01-07T09:29:49;-1.10;87.89
13796;SHT30;40911;51.552;9.874;2024-01-07T09:32:12;-0.97;88.12
13796;SHT30;40911;51.552;9.874;2024-01-07T09:34:33;-1.21;87.21
13796;SHT30;40911;51.552;9.874;2024-01-07T09:36:57;-1.20;87.42
13796;SHT30;40911;51.552;9.874;2024-01-07T09:39:18;-1.17;87.11
13796;SHT30;40911;51.552;9.874;2024-01-07T09:41:41;-1.37;85.97
13796;SHT30;40911;51.552;9.874;2024-01-07T09:44:02;-1.23;86.61
13796;SHT30;40911;51.552;9.874;2024-01-07T09:46:27;-1.23;86.49
13796;SHT30;40911;51.552;9.874;2024-01-07T09:48:50;-1.31;85.51
13796;SHT30;40911;51.552;9.874;2024-01-07T09:51:12;-1.37;85.21
13796;SHT30;40911;51.552;9.874;2024-01-07T09:53:35;-1.30;85.81
13796;SHT30;40911;51.552;9.874;2024-01-07T09:56:01;-1.30;85.53
13796;SHT30;40911;51.552;9.874;2024-01-07T09:58:25;-1.23;85.90
13796;SHT30;40911;51.552;9.874;2024-01-07T10:00:47;-1.25;85.60
13796;SHT30;40911;51.552;9.874;2024-01-07T10:03:08;-1.11;86.39
13796;SHT30;40911;51.552;9.874;2024-01-07T10:05:30;-1.20;85.80
13796;SHT30;40911;51.552;9.874;2024-01-07T10:07:52;-1.16;85.54
13796;SHT30;40911;51.552;9.874;2024-01-07T10:10:17;-1.07;85.54
13796;SHT30;40911;51.552;9.874;2024-01-07T10:12:39;-1.18;84.66
13796;SHT30;40911;51.552;9.874;2024-01-07T10:15:00;-1.16;84.82
13796;SHT30;40911;51.552;9.874;2024-01-07T10:17:23;-1.16;84.62
13796;SHT30;40911;51.552;9.874;2024-01-07T10:19:48;-1.13;84.69
13796;SHT30;40911;51.552;9.874;2024-01-07T10:22:12;-1.27;82.58
13796;SHT30;40911;51.552;9.874;2024-01-07T10:24:37;-1.38;81.37
13796;SHT30;40911;51.552;9.874;2024-01-07T10:27:01;-1.31;81.79
13796;SHT30;40911;51.552;9.874;2024-01-07T10:29:23;-1.28;81.41
13796;SHT30;40911;51.552;9.874;2024-01-07T10:31:44;-1.38;80.58
13796;SHT30;40911;51.552;9.874;2024-01-07T10:34:06;-1.14;82.09
13796;SHT30;40911;51.552;9.874;2024-01-07T10:36:29;-1.31;81.04
13796;SHT30;40911;51.552;9.874;2024-01-07T10:38:52;-1.23;81.06
13796;SHT30;40911;51.552;9.874;2024-01-07T10:41:14;-1.17;81.44
13796;SHT30;40911;51.552;9.874;2024-01-07T10:43:39;-1.41;79.61
13796;SHT30;40911;51.552;9.874;2024-01-07T10:46:02;-1.18;81.10
13796;SHT30;40911;51.552;9.874;2024-01-07T10:48:26;-1.30;79.83
13796;SHT30;40911;51.552;9.874;2024-01-07T10:50:55;-1.35;78.89
13796;SHT30;40911;51.552;9.874;2024-01-07T10:53:18;-1.24;79.98
13796;SHT30;40911;51.552;9.874;2024-01-07T10:55:47;-1.32;79.17
13796;SHT30;40911;51.552;9.874;2024-01-07T10:58:10;-1.23;79.65
13796;SHT30;40911;51.552;9.874;2024-01-07T11:00:33;-1.23;78.91
13796;SHT30;40911;51.552;9.874;2024-01-07T11:03:09;-1.16;78.91
13796;SHT30;40911;51.552;9.874;2024-01-07T11:05:39;-1.07;79.93
13796;SHT30;40911;51.552;9.874;2024-01-07T11:08:05;-1.17;78.70
13796;SHT30;40911;51.552;9.874;2024-01-07T11:10:34;-1.03;80.19
13796;SHT30;40911;51.552;9.874;2024-01-07T11:12:58;-0.96;80.29
13796;SHT30;40911;51.552;9.874;2024-01-07T11:15:51;-1.01;80.71
13796;SHT30;40911;51.552;9.874;2024-01-07T11:18:17;-0.87;81.98
13796;SHT30;40911;51.552;9.874;2024-01-07T11:20:38;-1.00;81.52
13796;SHT30;40911;51.552;9.874;2024-01-07T11:25:37;-1.03;81.73
13796;SHT30;40911;51.552;9.874;2024-01-07T11:28:01;-0.90;82.34
13796;SHT30;40911;51.552;9.874;2024-01-07T11:30:23;-1.03;81.62
13796;SHT30;40911;51.552;9.874;2024-01-07T11:32:46;-1.07;80.46
13796;SHT30;40911;51.552;9.874;2024-01-07T11:35:08;-1.01;81.18
13796;SHT30;40911;51.552;9.874;2024-01-07T11:37:30;-0.94;81.92
13796;SHT30;40911;51.552;9.874;2024-01-07T11:39:55;-1.00;81.71
13796;SHT30;40911;51.552;9.874;2024-01-07T11:42:17;-1.01;81.54
13796;SHT30;40911;51.552;9.874;2024-01-07T11:44:45;-1.03;81.55
13796;SHT30;40911;51.552;9.874;2024-01-07T11:47:07;-1.10;80.42
13796;SHT30;40911;51.552;9.874;2024-01-07T11:49:31;-1.17;79.99
13796;SHT30;40911;51.552;9.874;2024-01-07T11:51:52;-1.07;80.58
13796;SHT30;40911;51.552;9.874;2024-01-07T11:54:14;-1.16;80.24
13796;SHT30;40911;51.552;9.874;2024-01-07T11:56:36;-1.09;80.20
13796;SHT30;40911;51.552;9.874;2024-01-07T11:58:58;-1.13;80.67
13796;SHT30;40911;51.552;9.874;2024-01-07T12:01:20;-1.14;80.79
13796;SHT30;40911;51.552;9.874;2024-01-07T12:03:43;-1.10;81.12
13796;SHT30;40911;51.552;9.874;2024-01-07T12:06:06;-1.14;80.54
13796;SHT30;40911;51.552;9.874;2024-01-07T12:08:28;-1.16;80.43
13796;SHT30;40911;51.552;9.874;2024-01-07T12:10:51;-1.16;80.50
13796;SHT30;40911;51.552;9.874;2024-01-07T12:13:13;-1.03;81.01
13796;SHT30;40911;51.552;9.874;2024-01-07T12:15:35;-1.00;81.00
13796;SHT30;40911;51.552;9.874;2024-01-07T12:17:57;-1.10;80.46
13796;SHT30;40911;51.552;9.874;2024-01-07T12:20:20;-1.25;79.04
13796;SHT30;40911;51.552;9.874;2024-01-07T12:22:43;-1.18;80.02
13796;SHT30;40911;51.552;9.874;2024-01-07T12:25:06;-1.09;80.60
13796;SHT30;40911;51.552;9.874;2024-01-07T12:27:27;-1.06;81.23
13796;SHT30;40911;51.552;9.874;2024-01-07T12:29:54;-1.23;80.01
13796;SHT30;40911;51.552;9.874;2024-01-07T12:32:16;-1.10;80.75
13796;SHT30;40911;51.552;9.874;2024-01-07T12:34:38;-1.23;79.80
13796;SHT30;40911;51.552;9.874;2024-01-07T12:37:00;-1.10;80.09
13796;SHT30;40911;51.552;9.874;2024-01-07T12:39:26;-1.09;80.86
13796;SHT30;40911;51.552;9.874;2024-01-07T12:41:48;-1.10;80.93
13796;SHT30;40911;51.552;9.874;2024-01-07T12:44:09;-1.07;81.27
13796;SHT30;40911;51.552;9.874;2024-01-07T12:46:31;-1.11;81.13
13796;SHT30;40911;51.552;9.874;2024-01-07T12:48:53;-1.10;81.08
13796;SHT30;40911;51.552;9.874;2024-01-07T12:51:16;-1.18;80.82
13796;SHT30;40911;51.552;9.874;2024-01-07T12:53:37;-1.21;80.88
13796;SHT30;40911;51.552;9.874;2024-01-07T12:56:00;-1.10;81.45
13796;SHT30;40911;51.552;9.874;2024-01-07T12:58:22;-1.17;81.17
13796;SHT30;40911;51.552;9.874;2024-01-07T13:00:44;-1.16;81.15
13796;SHT30;40911;51.552;9.874;2024-01-07T13:03:05;-1.14;80.90
13796;SHT30;40911;51.552;9.874;2024-01-07T13:05:28;-1.10;81.86
13796;SHT30;40911;51.552;9.874;2024-01-07T13:07:49;-1.16;81.27
13796;SHT30;40911;51.552;9.874;2024-01-07T13:10:11;-1.18;81.40
13796;SHT30;40911;51.552;9.874;2024-01-07T13:12:34;-1.10;81.51
13796;SHT30;40911;51.552;9.874;2024-01-07T13:14:56;-1.10;81.62
13796;SHT30;40911;51.552;9.874;2024-01-07T13:17:18;-1.11;81.52
13796;SHT30;40911;51.552;9.874;2024-01-07T13:19:39;-1.14;81.44
13796;SHT30;40911;51.552;9.874;2024-01-07T13:22:01;-1.10;81.31
13796;SHT30;40911;51.552;9.874;2024-01-07T13:24:23;-1.16;81.11
13796;SHT30;40911;51.552;9.874;2024-01-07T13:26:44;-1.18;80.59
13796;SHT30;40911;51.552;9.874;2024-01-07T13:29:07;-1.06;81.59
13796;SHT30;40911;51.552;9.874;2024-01-07T13:31:29;-1.13;81.55
13796;SHT30;40911;51.552;9.874;2024-01-07T13:33:50;-1.13;81.38
13796;SHT30;40911;51.552;9.874;2024-01-07T13:36:12;-1.09;81.53
13796;SHT30;40911;51.552;9.874;2024-01-07T13:38:34;-1.14;81.50
13796;SHT30;40911;51.552;9.874;2024-01-07T13:40:55;-1.07;82.09
13796;SHT30;40911;51.552;9.874;2024-01-07T13:43:18;-1.16;81.20
13796;SHT30;40911;51.552;9.874;2024-01-07T13:45:41;-1.09;81.46
13796;SHT30;40911;51.552;9.874;2024-01-07T13:48:03;-1.06;81.80
13796;SHT30;40911;51.552;9.874;2024-01-07T13:50:25;-1.06;81.84
13796;SHT30;40911;51.552;9.874;2024-01-07T13:52:47;-1.09;81.62
13796;SHT30;40911;51.552;9.874;2024-01-07T13:55:08;-1.13;81.60
13796;SHT30;40911;51.552;9.874;2024-01-07T13:57:31;-1.04;82.28
13796;SHT30;40911;51.552;9.874;2024-01-07T13:59:52;-1.06;82.43
13796;SHT30;40911;51.552;9.874;2024-01-07T14:02:15;-1.09;81.71
13796;SHT30;40911;51.552;9.874;2024-01-07T14:04:39;-1.16;81.10
13796;SHT30;40911;51.552;9.874;2024-01-07T14:07:01;-1.14;80.93
13796;SHT30;40911;51.552;9.874;2024-01-07T14:09:22;-1.13;80.46
13796;SHT30;40911;51.552;9.874;2024-01-07T14:11:44;-1.06;81.23
13796;SHT30;40911;51.552;9.874;2024-01-07T14:14:06;-1.09;81.41
13796;SHT30;40911;51.552;9.874;2024-01-07T14:16:28;-1.04;81.92
13796;SHT30;40911;51.552;9.874;2024-01-07T14:18:50;-1.07;81.82
13796;SHT30;40911;51.552;9.874;2024-01-07T14:21:12;-1.03;82.03
13796;SHT30;40911;51.552;9.874;2024-01-07T14:23:33;-1.10;81.46
13796;SHT30;40911;51.552;9.874;2024-01-07T14:25:56;-1.06;81.39
13796;SHT30;40911;51.552;9.874;2024-01-07T14:28:17;-1.11;80.95
13796;SHT30;40911;51.552;9.874;2024-01-07T14:30:39;-1.07;81.20
13796;SHT30;40911;51.552;9.874;2024-01-07T14:33:01;-1.13;81.33
13796;SHT30;40911;51.552;9.874;2024-01-07T14:35:24;-1.17;81.61
13796;SHT30;40911;51.552;9.874;2024-01-07T14:37:48;-1.06;82.32
13796;SHT30;40911;51.552;9.874;2024-01-07T14:40:11;-1.14;81.55
13796;SHT30;40911;51.552;9.874;2024-01-07T14:42:32;-1.13;81.38
13796;SHT30;40911;51.552;9.874;2024-01-07T14:44:54;-1.13;82.72
13796;SHT30;40911;51.552;9.874;2024-01-07T14:47:16;-1.14;82.60
13796;SHT30;40911;51.552;9.874;2024-01-07T14:49:39;-1.10;83.11
13796;SHT30;40911;51.552;9.874;2024-01-07T14:52:02;-1.09;83.02
13796;SHT30;40911;51.552;9.874;2024-01-07T14:54:24;-1.13;82.65
13796;SHT30;40911;51.552;9.874;2024-01-07T14:56:46;-1.14;83.09
13796;SHT30;40911;51.552;9.874;2024-01-07T14:59:07;-1.10;83.59
13796;SHT30;40911;51.552;9.874;2024-01-07T15:01:29;-1.11;83.75
13796;SHT30;40911;51.552;9.874;2024-01-07T15:03:50;-1.07;84.57
13796;SHT30;40911;51.552;9.874;2024-01-07T15:06:12;-1.06;85.31
13796;SHT30;40911;51.552;9.874;2024-01-07T15:08:36;-0.99;85.91